createdAt,value
2018-06-30T00:00:24.217Z,63.30
2018-06-30T00:02:52.347Z,63.30
2018-06-30T00:05:20.466Z,63.70
2018-06-30T00:07:48.571Z,63.60
2018-06-30T00:12:59.861Z,63.40
2018-06-30T00:15:28.063Z,63.50
2018-06-30T00:17:56.414Z,63.30
2018-06-30T00:22:53.071Z,63.40
2018-06-30T00:25:21.208Z,63.50
2018-06-30T00:27:49.420Z,63.50
2018-06-30T00:32:45.546Z,63.80
2018-06-30T00:35:13.662Z,63.90
2018-06-30T00:37:41.883Z,63.90
2018-06-30T00:40:10.133Z,63.90
2018-06-30T00:42:38.324Z,64.00
2018-06-30T00:45:06.558Z,64.10
2018-06-30T00:47:34.645Z,64.10
2018-06-30T00:50:02.805Z,64.40
2018-06-30T00:52:31.095Z,64.50
2018-06-30T00:54:59.357Z,64.60
2018-06-30T00:57:27.510Z,64.80
2018-06-30T00:59:55.786Z,65.20
2018-06-30T01:02:24.247Z,65.90
2018-06-30T01:04:52.563Z,65.80
2018-06-30T01:07:20.743Z,65.50
2018-06-30T01:09:48.821Z,65.80
2018-06-30T01:12:16.964Z,66.00
2018-06-30T01:14:45.097Z,66.00
2018-06-30T01:17:13.273Z,66.00
2018-06-30T01:19:41.378Z,66.40
2018-06-30T01:22:09.521Z,66.80
2018-06-30T01:24:37.658Z,66.50
2018-06-30T01:27:05.822Z,66.90
2018-06-30T01:29:33.999Z,66.80
2018-06-30T01:34:30.035Z,67.00
2018-06-30T01:36:58.216Z,67.40
2018-06-30T01:39:26.299Z,67.30
2018-06-30T01:41:54.456Z,67.80
2018-06-30T01:44:22.582Z,67.40
2018-06-30T01:46:50.808Z,67.40
2018-06-30T01:51:46.855Z,68.30
2018-06-30T01:54:15.119Z,67.40
2018-06-30T01:56:43.393Z,67.40
2018-06-30T01:59:11.581Z,67.60
2018-06-30T02:01:39.750Z,67.60
2018-06-30T02:04:07.926Z,67.60
2018-06-30T02:06:36.359Z,67.70
2018-06-30T02:09:07.104Z,68.10
2018-06-30T02:11:35.245Z,68.30
2018-06-30T02:14:03.394Z,68.00
2018-06-30T02:16:31.545Z,68.30
2018-06-30T02:18:59.797Z,68.30
2018-06-30T02:21:28.073Z,68.10
2018-06-30T02:23:56.273Z,68.30
2018-06-30T02:26:24.493Z,68.40
2018-06-30T02:28:52.626Z,68.20
2018-06-30T02:31:20.771Z,69.50
2018-06-30T02:33:48.969Z,68.70
2018-06-30T02:36:17.231Z,68.60
2018-06-30T02:38:45.347Z,68.10
2018-06-30T02:41:13.520Z,68.10
2018-06-30T02:43:41.649Z,68.10
2018-06-30T02:46:09.748Z,68.00
2018-06-30T02:48:37.901Z,68.40
2018-06-30T02:51:06.108Z,68.40
2018-06-30T02:53:34.258Z,68.40
2018-06-30T02:56:02.386Z,68.40
2018-06-30T02:58:30.491Z,68.60
2018-06-30T03:00:58.646Z,68.60
2018-06-30T03:03:26.840Z,68.70
2018-06-30T03:05:54.924Z,69.50
2018-06-30T03:08:23.071Z,68.90
2018-06-30T03:10:51.201Z,68.80
2018-06-30T03:13:19.354Z,69.20
2018-06-30T03:15:47.647Z,69.30
2018-06-30T03:18:15.794Z,69.70
2018-06-30T03:20:44.028Z,69.80
2018-06-30T03:23:12.149Z,70.00
2018-06-30T03:25:40.311Z,70.30
2018-06-30T03:28:08.498Z,70.20
2018-06-30T03:30:36.646Z,69.90
2018-06-30T03:33:04.921Z,70.00
2018-06-30T03:35:33.755Z,69.70
2018-06-30T03:38:01.908Z,69.90
2018-06-30T03:40:30.162Z,69.50
2018-06-30T03:42:58.316Z,69.40
2018-06-30T03:45:26.423Z,69.50
2018-06-30T03:50:22.440Z,69.50
2018-06-30T03:52:50.658Z,69.60
2018-06-30T03:55:18.758Z,69.40
2018-06-30T03:57:46.963Z,69.10
2018-06-30T04:00:15.206Z,69.20
2018-06-30T04:02:43.354Z,69.10
2018-06-30T04:05:11.483Z,69.20
2018-06-30T04:07:39.559Z,69.20
2018-06-30T04:10:07.846Z,69.00
2018-06-30T04:12:36.002Z,68.90
2018-06-30T04:15:04.432Z,69.10
2018-06-30T04:17:32.602Z,69.20
2018-06-30T04:20:00.850Z,68.90
2018-06-30T04:22:28.996Z,69.10
2018-06-30T04:24:57.241Z,69.10
2018-06-30T04:27:25.558Z,68.90
2018-06-30T04:29:53.667Z,68.70
2018-06-30T04:32:22.004Z,68.40
2018-06-30T04:34:50.223Z,68.10
2018-06-30T04:37:18.355Z,67.60
2018-06-30T04:39:46.518Z,67.70
2018-06-30T04:42:14.611Z,67.30
2018-06-30T04:44:42.795Z,67.20
2018-06-30T04:47:10.884Z,67.30
2018-06-30T04:49:39.015Z,67.20
2018-06-30T04:52:07.644Z,67.00
2018-06-30T04:54:35.751Z,66.70
2018-06-30T04:57:03.866Z,66.30
2018-06-30T04:59:31.973Z,66.00
2018-06-30T05:02:00.099Z,65.80
2018-06-30T05:04:28.215Z,65.40
2018-06-30T05:06:56.355Z,65.00
2018-06-30T05:09:24.487Z,65.70
2018-06-30T05:14:20.795Z,64.30
2018-06-30T05:16:48.889Z,64.10
2018-06-30T05:19:16.990Z,64.00
2018-06-30T05:21:45.114Z,63.60
2018-06-30T05:24:13.211Z,63.30
2018-06-30T05:26:41.339Z,62.80
2018-06-30T05:29:09.444Z,62.50
2018-06-30T05:31:37.535Z,61.40
2018-06-30T05:34:05.814Z,60.60
2018-06-30T05:36:33.920Z,59.90
2018-06-30T05:39:02.017Z,59.80
2018-06-30T05:41:30.136Z,59.90
2018-06-30T05:43:58.215Z,59.00
2018-06-30T05:46:26.336Z,58.70
2018-06-30T05:48:54.446Z,59.00
2018-06-30T05:51:22.573Z,57.80
2018-06-30T05:53:50.679Z,57.60
2018-06-30T05:56:18.789Z,57.00
2018-06-30T05:58:46.899Z,54.60
2018-06-30T06:01:15.034Z,52.70
2018-06-30T06:03:43.162Z,50.90
2018-06-30T06:06:11.272Z,48.80
2018-06-30T06:08:39.356Z,48.30
2018-06-30T06:11:07.492Z,48.80
2018-06-30T06:13:35.666Z,48.90
2018-06-30T06:16:03.763Z,49.20
2018-06-30T06:18:31.870Z,48.80
2018-06-30T06:20:59.972Z,49.10
2018-06-30T06:23:28.078Z,50.60
2018-06-30T06:25:56.316Z,50.10
2018-06-30T06:28:24.442Z,49.20
2018-06-30T06:30:52.590Z,49.60
2018-06-30T06:33:20.715Z,49.00
2018-06-30T06:35:48.856Z,48.90
2018-06-30T06:38:16.975Z,48.10
2018-06-30T06:40:45.077Z,48.80
2018-06-30T06:43:13.216Z,48.70
2018-06-30T06:45:41.382Z,49.30
2018-06-30T06:50:37.423Z,49.50
2018-06-30T06:53:06.406Z,48.50
2018-06-30T06:55:34.498Z,48.90
2018-06-30T07:00:31.119Z,47.80
2018-06-30T07:02:59.318Z,48.00
2018-06-30T07:05:27.443Z,49.00
2018-06-30T07:07:55.582Z,49.00
2018-06-30T07:10:23.660Z,48.60
2018-06-30T07:12:51.815Z,48.70
2018-06-30T07:17:47.855Z,46.80
2018-06-30T07:20:15.974Z,44.00
2018-06-30T07:22:44.278Z,42.60
2018-06-30T07:25:12.423Z,42.30
2018-06-30T07:27:40.525Z,40.20
2018-06-30T07:30:08.773Z,39.50
2018-06-30T07:32:36.857Z,39.00
2018-06-30T07:35:05.009Z,40.80
2018-06-30T07:37:33.207Z,40.20
2018-06-30T07:42:29.211Z,38.00
2018-06-30T07:44:57.329Z,38.90
2018-06-30T07:47:25.445Z,39.10
2018-06-30T07:49:53.548Z,37.60
2018-06-30T07:52:21.818Z,33.90
2018-06-30T07:54:49.954Z,33.60
2018-06-30T07:57:18.112Z,32.40
2018-06-30T07:59:46.243Z,31.50
2018-06-30T08:02:14.410Z,31.90
2018-06-30T08:04:42.518Z,31.50
2018-06-30T08:07:10.613Z,31.60
2018-06-30T08:09:38.733Z,32.10
2018-06-30T08:12:06.862Z,30.50
2018-06-30T08:14:34.957Z,31.90
2018-06-30T08:17:03.426Z,33.50
2018-06-30T08:19:31.535Z,34.50
2018-06-30T08:21:59.724Z,34.50
2018-06-30T08:24:27.807Z,35.00
2018-06-30T08:26:55.889Z,35.50
2018-06-30T08:29:24.371Z,36.80
2018-06-30T08:31:52.463Z,36.70
2018-06-30T08:34:20.598Z,37.20
2018-06-30T08:36:48.788Z,37.70
2018-06-30T08:39:16.923Z,37.60
2018-06-30T08:41:45.048Z,37.50
2018-06-30T08:44:13.121Z,37.60
2018-06-30T08:46:41.216Z,36.80
2018-06-30T08:49:09.573Z,36.60
2018-06-30T08:51:37.774Z,35.60
2018-06-30T08:54:05.968Z,35.50
2018-06-30T08:56:34.066Z,36.20
2018-06-30T08:59:02.180Z,36.20
2018-06-30T09:01:30.320Z,37.00
2018-06-30T09:03:58.407Z,37.70
2018-06-30T09:06:26.569Z,35.90
2018-06-30T09:08:54.655Z,35.90
2018-06-30T09:11:22.746Z,35.50
2018-06-30T09:13:50.941Z,35.30
2018-06-30T09:16:19.203Z,34.10
2018-06-30T09:18:47.408Z,33.20
2018-06-30T09:21:15.487Z,34.30
2018-06-30T09:23:43.569Z,34.10
2018-06-30T09:26:11.651Z,33.70
2018-06-30T09:28:39.739Z,33.30
2018-06-30T09:31:07.835Z,33.40
2018-06-30T09:33:35.962Z,32.90
2018-06-30T09:36:04.070Z,33.20
2018-06-30T09:38:32.185Z,33.50
2018-06-30T09:41:00.669Z,33.80
2018-06-30T09:43:28.737Z,33.60
2018-06-30T09:45:56.866Z,33.90
2018-06-30T09:48:24.965Z,35.00
2018-06-30T09:50:53.136Z,35.30
2018-06-30T09:53:21.555Z,35.50
2018-06-30T09:55:49.668Z,35.10
2018-06-30T09:58:17.934Z,35.50
2018-06-30T10:00:55.276Z,35.50
2018-06-30T10:03:24.337Z,35.00
2018-06-30T10:05:52.562Z,34.40
2018-06-30T10:08:20.750Z,33.80
2018-06-30T10:10:48.958Z,33.50
2018-06-30T10:15:48.133Z,33.10
2018-06-30T10:18:16.354Z,33.80
2018-06-30T10:20:46.689Z,33.80
2018-06-30T10:23:14.936Z,32.40
2018-06-30T10:25:43.541Z,32.60
2018-06-30T10:28:12.152Z,32.30
2018-06-30T10:30:41.066Z,33.10
2018-06-30T10:33:09.800Z,33.20
2018-06-30T10:35:38.080Z,33.40
2018-06-30T10:40:34.411Z,33.30
2018-06-30T10:43:02.639Z,33.40
2018-06-30T10:45:30.969Z,33.10
2018-06-30T10:47:59.132Z,33.20
2018-06-30T10:50:27.306Z,32.60
2018-06-30T10:52:55.553Z,32.20
2018-06-30T10:55:23.702Z,31.80
2018-06-30T10:57:51.782Z,31.30
2018-06-30T11:00:19.941Z,31.00
2018-06-30T11:02:48.116Z,31.50
2018-06-30T11:05:16.273Z,31.20
2018-06-30T11:07:44.440Z,30.60
2018-06-30T11:10:12.602Z,30.00
2018-06-30T11:12:41.029Z,29.90
2018-06-30T11:15:09.247Z,30.00
2018-06-30T11:17:43.065Z,30.40
2018-06-30T11:20:11.266Z,30.80
2018-06-30T11:22:39.400Z,31.40
2018-06-30T11:25:08.415Z,31.10
2018-06-30T11:27:36.563Z,31.90
2018-06-30T11:30:05.250Z,31.50
2018-06-30T11:32:33.771Z,32.20
2018-06-30T11:35:02.785Z,32.30
2018-06-30T11:37:30.887Z,33.00
2018-06-30T11:39:59.117Z,33.10
2018-06-30T11:42:27.218Z,33.00
2018-06-30T11:44:55.426Z,32.60
2018-06-30T11:47:23.569Z,32.90
2018-06-30T11:49:51.708Z,32.90
2018-06-30T11:52:20.186Z,33.00
2018-06-30T11:54:48.318Z,32.30
2018-06-30T11:57:16.396Z,31.60
2018-06-30T11:59:44.529Z,31.10
2018-06-30T12:02:12.774Z,31.70
2018-06-30T12:04:40.886Z,32.30
2018-06-30T12:07:09.025Z,32.30
2018-06-30T12:09:37.161Z,33.00
2018-06-30T12:12:05.261Z,33.40
2018-06-30T12:14:33.493Z,33.90
2018-06-30T12:17:01.581Z,33.90
2018-06-30T12:19:29.655Z,34.30
2018-06-30T12:24:25.637Z,35.20
2018-06-30T12:26:53.847Z,34.90
2018-06-30T12:29:21.961Z,35.10
2018-06-30T12:31:50.105Z,35.10
2018-06-30T12:34:18.238Z,36.10
2018-06-30T12:36:46.313Z,36.50
2018-06-30T12:39:14.451Z,35.60
2018-06-30T12:41:42.508Z,34.50
2018-06-30T12:44:10.569Z,32.60
2018-06-30T12:46:38.745Z,32.60
2018-06-30T12:49:06.889Z,32.90
2018-06-30T12:51:35.277Z,33.00
2018-06-30T12:54:03.389Z,32.50
2018-06-30T12:56:31.551Z,32.30
2018-06-30T13:01:27.666Z,32.70
2018-06-30T13:03:55.818Z,32.10
2018-06-30T13:06:23.981Z,31.80
2018-06-30T13:08:52.084Z,32.40
2018-06-30T13:11:20.231Z,32.00
2018-06-30T13:13:48.349Z,30.90
2018-06-30T13:16:16.482Z,30.90
2018-06-30T13:18:44.575Z,30.40
2018-06-30T13:21:12.877Z,30.40
2018-06-30T13:23:41.047Z,30.60
2018-06-30T13:26:09.197Z,30.70
2018-06-30T13:28:37.320Z,30.60
2018-06-30T13:31:05.879Z,29.90
2018-06-30T13:33:33.946Z,29.90
2018-06-30T13:36:02.045Z,29.60
2018-06-30T13:40:58.123Z,30.80
2018-06-30T13:43:26.269Z,29.40
2018-06-30T13:45:54.386Z,29.90
2018-06-30T13:48:22.505Z,30.50
2018-06-30T13:50:50.599Z,31.00
2018-06-30T13:53:18.723Z,31.20
2018-06-30T13:55:46.795Z,31.60
2018-06-30T13:58:14.936Z,32.00
2018-06-30T14:00:43.038Z,31.80
2018-06-30T14:03:11.110Z,31.90
2018-06-30T14:05:39.190Z,32.20
2018-06-30T14:08:07.303Z,32.30
2018-06-30T14:10:35.403Z,32.60
2018-06-30T14:13:03.563Z,33.10
2018-06-30T14:15:31.680Z,33.40
2018-06-30T14:17:59.912Z,33.60
2018-06-30T14:20:28.007Z,33.40
2018-06-30T14:22:56.183Z,33.30
2018-06-30T14:25:24.315Z,32.30
2018-06-30T14:27:52.559Z,32.10
2018-06-30T14:30:20.743Z,32.80
2018-06-30T14:32:48.955Z,33.20
2018-06-30T14:35:17.055Z,32.90
2018-06-30T14:37:45.238Z,32.60
2018-06-30T14:40:13.250Z,32.20
2018-06-30T14:42:41.342Z,32.30
2018-06-30T14:45:09.434Z,31.80
2018-06-30T14:47:37.560Z,31.30
2018-06-30T14:50:05.639Z,32.00
2018-06-30T14:52:33.746Z,32.30
2018-06-30T14:55:01.895Z,31.80
2018-06-30T14:57:29.961Z,32.20
2018-06-30T14:59:58.070Z,31.10
2018-06-30T15:02:26.169Z,31.40
2018-06-30T15:04:54.254Z,31.90
2018-06-30T15:07:22.428Z,32.20
2018-06-30T15:09:50.502Z,32.20
2018-06-30T15:12:18.565Z,32.40
2018-06-30T15:14:46.702Z,32.30
2018-06-30T15:17:14.819Z,32.20
2018-06-30T15:19:42.971Z,32.50
2018-06-30T15:22:11.101Z,32.70
2018-06-30T15:24:39.304Z,33.20
2018-06-30T15:27:07.407Z,33.60
2018-06-30T15:29:35.572Z,34.00
2018-06-30T15:34:31.679Z,35.20
2018-06-30T15:36:59.802Z,35.10
2018-06-30T15:39:27.913Z,35.20
2018-06-30T15:41:55.998Z,34.70
2018-06-30T15:44:24.126Z,33.60
2018-06-30T15:46:52.231Z,33.00
2018-06-30T15:49:20.319Z,32.60
2018-06-30T15:51:48.505Z,32.40
2018-06-30T15:54:16.608Z,31.90
2018-06-30T15:56:44.749Z,31.00
2018-06-30T15:59:12.983Z,31.30
2018-06-30T16:01:41.070Z,31.80
2018-06-30T16:04:09.211Z,32.40
2018-06-30T16:06:37.373Z,32.50
2018-06-30T16:11:35.009Z,32.80
2018-06-30T16:14:03.706Z,33.30
2018-06-30T16:19:06.523Z,32.70
2018-06-30T16:21:34.926Z,31.00
2018-06-30T16:24:03.076Z,31.00
2018-06-30T16:26:31.467Z,30.60
2018-06-30T16:28:59.718Z,30.50
2018-06-30T16:31:27.868Z,30.40
2018-06-30T16:33:55.936Z,30.40
2018-06-30T16:36:24.267Z,30.50
2018-06-30T16:38:52.629Z,30.90
2018-06-30T16:41:20.908Z,30.90
2018-06-30T16:43:49.300Z,30.90
2018-06-30T16:46:17.316Z,30.40
2018-06-30T16:51:13.404Z,29.70
2018-06-30T16:53:41.673Z,29.60
2018-06-30T16:56:09.911Z,29.80
2018-06-30T16:58:38.083Z,30.00
2018-06-30T17:01:06.255Z,30.20
2018-06-30T17:03:34.347Z,30.50
2018-06-30T17:06:02.524Z,30.70
2018-06-30T17:08:30.664Z,30.10
2018-06-30T17:10:58.799Z,30.30
2018-06-30T17:13:26.901Z,30.60
2018-06-30T17:15:55.118Z,30.60
2018-06-30T17:18:23.209Z,31.00
2018-06-30T17:20:51.335Z,30.90
2018-06-30T17:23:19.413Z,30.50
2018-06-30T17:25:47.618Z,30.50
2018-06-30T17:28:15.737Z,31.50
2018-06-30T17:30:43.901Z,30.20
2018-06-30T17:33:12.873Z,30.70
2018-06-30T17:35:41.051Z,31.00
2018-06-30T17:38:09.158Z,31.30
2018-06-30T17:40:37.321Z,31.60
2018-06-30T17:43:05.918Z,31.60
2018-06-30T17:45:34.097Z,31.50
2018-06-30T17:48:02.325Z,31.30
2018-06-30T17:50:30.606Z,31.70
2018-06-30T17:52:58.713Z,32.30
2018-06-30T17:55:26.885Z,33.00
2018-06-30T17:57:55.019Z,33.40
2018-06-30T18:00:23.171Z,33.20
2018-06-30T18:02:51.353Z,33.00
2018-06-30T18:05:19.461Z,33.40
2018-06-30T18:07:47.604Z,33.50
2018-06-30T18:12:43.656Z,35.00
2018-06-30T18:15:11.787Z,35.40
2018-06-30T18:17:39.894Z,35.70
2018-06-30T18:20:07.988Z,36.00
2018-06-30T18:22:36.087Z,36.10
2018-06-30T18:25:04.206Z,35.90
2018-06-30T18:27:32.307Z,35.50
2018-06-30T18:30:00.457Z,35.50
2018-06-30T18:32:28.596Z,35.00
2018-06-30T18:34:56.673Z,35.50
2018-06-30T18:37:24.772Z,36.50
2018-06-30T18:39:52.891Z,37.40
2018-06-30T18:42:21.002Z,37.90
2018-06-30T18:44:49.257Z,38.60
2018-06-30T18:47:17.655Z,39.20
2018-06-30T18:49:45.759Z,39.70
2018-06-30T18:52:14.059Z,40.10
2018-06-30T18:54:42.224Z,40.50
2018-06-30T18:57:10.327Z,40.90
2018-06-30T18:59:38.462Z,41.30
2018-06-30T19:02:06.730Z,41.30
2018-06-30T19:04:34.811Z,41.50
2018-06-30T19:07:02.932Z,41.70
2018-06-30T19:09:31.048Z,42.10
2018-06-30T19:11:59.143Z,42.20
2018-06-30T19:14:27.281Z,42.30
2018-06-30T19:16:55.675Z,42.50
2018-06-30T19:19:23.846Z,42.70
2018-06-30T19:21:52.075Z,43.00
2018-06-30T19:24:20.154Z,43.00
2018-06-30T19:26:48.282Z,43.00
2018-06-30T19:29:16.410Z,43.00
2018-06-30T19:31:44.627Z,42.90
2018-06-30T19:34:12.766Z,42.90
2018-06-30T19:36:41.048Z,42.90
2018-06-30T19:39:10.503Z,43.00
2018-06-30T19:41:38.639Z,43.20
2018-06-30T19:44:06.797Z,43.10
2018-06-30T19:46:34.907Z,43.50
2018-06-30T19:49:03.070Z,43.60
2018-06-30T19:51:31.191Z,43.90
2018-06-30T19:53:59.300Z,44.00
2018-06-30T19:56:27.678Z,44.20
2018-06-30T19:58:55.848Z,44.60
2018-06-30T20:01:24.054Z,44.50
2018-06-30T20:03:52.195Z,45.00
2018-06-30T20:06:20.448Z,44.40
2018-06-30T20:08:48.590Z,44.10
2018-06-30T20:11:16.737Z,44.10
2018-06-30T20:13:44.911Z,44.60
2018-06-30T20:16:13.014Z,44.20
2018-06-30T20:18:41.357Z,44.20
2018-06-30T20:21:09.463Z,44.50
2018-06-30T20:23:37.590Z,44.80
2018-06-30T20:26:06.069Z,44.80
2018-06-30T20:28:34.446Z,45.00
2018-06-30T20:31:02.600Z,45.10
2018-06-30T20:33:30.707Z,44.90
2018-06-30T20:35:58.839Z,45.70
2018-06-30T20:38:26.944Z,45.80
2018-06-30T20:40:55.083Z,46.00
2018-06-30T20:43:23.179Z,45.90
2018-06-30T20:45:51.280Z,45.90
2018-06-30T20:48:19.352Z,46.10
2018-06-30T20:50:47.567Z,45.80
2018-06-30T20:53:15.687Z,45.50
2018-06-30T20:55:43.851Z,45.80
2018-06-30T20:58:12.034Z,45.70
2018-06-30T21:00:40.181Z,45.70
2018-06-30T21:03:10.479Z,45.70
2018-06-30T21:05:38.591Z,46.40
2018-06-30T21:08:06.892Z,46.10
2018-06-30T21:10:35.039Z,46.20
2018-06-30T21:13:03.126Z,46.40
2018-06-30T21:15:33.297Z,46.60
2018-06-30T21:18:01.426Z,46.80
2018-06-30T21:20:29.583Z,47.20
2018-06-30T21:22:57.664Z,47.40
2018-06-30T21:25:25.789Z,47.60
2018-06-30T21:27:53.896Z,48.10
2018-06-30T21:30:22.073Z,48.10
2018-06-30T21:32:50.230Z,48.40
2018-06-30T21:35:18.460Z,48.60
2018-06-30T21:37:46.550Z,48.90
2018-06-30T21:40:14.713Z,49.20
2018-06-30T21:42:42.835Z,49.50
2018-06-30T21:45:11.007Z,49.90
2018-06-30T21:47:39.120Z,50.30
2018-06-30T21:52:35.344Z,50.90
2018-06-30T21:55:03.496Z,51.20
2018-06-30T21:57:31.593Z,51.50
2018-06-30T21:59:59.719Z,51.80
2018-06-30T22:02:27.829Z,52.80
2018-06-30T22:04:55.902Z,52.20
2018-06-30T22:07:24.004Z,52.50
2018-06-30T22:12:20.102Z,53.00
2018-06-30T22:14:48.209Z,53.20
2018-06-30T22:17:16.316Z,53.40
2018-06-30T22:19:44.502Z,54.10
2018-06-30T22:22:12.624Z,53.70
2018-06-30T22:24:40.772Z,53.90
2018-06-30T22:27:08.943Z,54.10
2018-06-30T22:29:37.022Z,54.10
2018-06-30T22:32:05.187Z,54.30
2018-06-30T22:34:33.331Z,54.40
2018-06-30T22:37:01.445Z,54.50
2018-06-30T22:39:41.159Z,54.60
2018-06-30T22:42:09.250Z,54.70
2018-06-30T22:44:37.340Z,54.80
2018-06-30T22:47:05.533Z,55.00
2018-06-30T22:49:33.590Z,55.00
2018-06-30T22:52:01.750Z,55.10
2018-06-30T22:54:29.821Z,55.30
2018-06-30T22:56:57.952Z,55.20
2018-06-30T22:59:26.064Z,55.40
2018-06-30T23:01:54.156Z,56.20
2018-06-30T23:04:22.255Z,55.50
2018-06-30T23:06:50.304Z,55.60
2018-06-30T23:09:18.432Z,55.80
2018-06-30T23:11:46.542Z,56.20
2018-06-30T23:14:14.710Z,56.40
2018-06-30T23:16:42.880Z,56.30
2018-06-30T23:19:10.935Z,56.20
2018-06-30T23:21:39.013Z,56.50
2018-06-30T23:24:07.130Z,56.70
2018-06-30T23:26:35.234Z,56.70
2018-06-30T23:29:03.326Z,56.70
2018-06-30T23:31:31.418Z,57.40
2018-06-30T23:33:59.547Z,56.90
2018-06-30T23:36:27.644Z,57.20
2018-06-30T23:41:23.606Z,56.90
2018-06-30T23:43:51.722Z,57.10
2018-06-30T23:46:19.846Z,57.20
2018-06-30T23:48:47.938Z,57.60
2018-06-30T23:51:16.399Z,57.60
2018-06-30T23:53:44.499Z,57.80
2018-06-30T23:56:12.600Z,57.80
2018-06-30T23:58:40.711Z,57.90
